Time;durP1;ratioP1;P1;durP2;ratioP2;P2;SDS_P1;SDS_P2;PMS_P1;PMS_P2;Temp;Humidity;BMP_temperature;BMP_pressure;BME280_temperature;BME280_humidity;BME280_pressure;Samples;Min_cycle;Max_cycle;Signal;HPM_P1;HPM_P2
2022/06/25 00:01:32;;;;;;;4.50;4.10;;;21.70;99.90;;;;;;5048520;28;20415;-48
2022/06/25 00:03:59;;;;;;;4.00;3.60;;;21.70;99.90;;;;;;5051827;28;20444;-51
2022/06/25 00:06:27;;;;;;;6.10;4.80;;;21.70;99.90;;;;;;5047170;28;20868;-51
2022/06/25 00:08:55;;;;;;;4.70;4.40;;;21.80;99.90;;;;;;5053505;28;20419;-52
2022/06/25 00:14:11;;;;;;;3.20;3.00;;;21.80;99.90;;;;;;5049981;28;20414;-49
2022/06/25 00:16:39;;;;;;;5.07;3.67;;;21.70;99.90;;;;;;5047292;28;20440;-50
2022/06/25 00:19:06;;;;;;;4.50;4.00;;;21.80;99.90;;;;;;5050176;28;20604;-48
2022/06/25 00:21:34;;;;;;;5.73;3.40;;;21.90;99.90;;;;;;5048649;28;20417;-49
2022/06/25 00:24:01;;;;;;;4.00;3.70;;;21.90;99.90;;;;;;5049679;28;20418;-48
2022/06/25 00:26:28;;;;;;;7.90;3.60;;;22.00;99.90;;;;;;5049832;28;20638;-49
2022/06/25 00:28:55;;;;;;;4.53;4.00;;;21.90;99.90;;;;;;5049662;28;20632;-49
2022/06/25 00:31:23;;;;;;;4.67;3.60;;;22.00;99.90;;;;;;5047225;28;20784;-53
2022/06/25 00:33:50;;;;;;;4.97;3.43;;;22.00;99.90;;;;;;5049425;28;20435;-50
2022/06/25 00:36:17;;;;;;;4.70;3.93;;;21.90;99.90;;;;;;5048823;28;20459;-50
2022/06/25 00:38:44;;;;;;;5.90;3.97;;;21.90;99.90;;;;;;5048388;28;20439;-47
2022/06/25 00:41:12;;;;;;;4.10;3.70;;;21.80;99.90;;;;;;5049151;28;20475;-48
2022/06/25 00:43:40;;;;;;;5.60;5.10;;;21.70;99.90;;;;;;5046349;28;20441;-47
2022/06/25 00:46:08;;;;;;;5.03;3.63;;;21.80;99.90;;;;;;5052222;28;20466;-53
2022/06/25 00:48:35;;;;;;;4.93;4.43;;;21.80;99.90;;;;;;5047873;28;20482;-50
2022/06/25 00:51:11;;;;;;;5.70;3.97;;;21.60;99.90;;;;;;5052522;28;20421;-49
2022/06/25 00:53:44;;;;;;;4.40;4.10;;;21.40;99.90;;;;;;5050428;28;20732;-52
2022/06/25 00:56:13;;;;;;;7.63;5.20;;;21.30;99.90;;;;;;5044954;28;20444;-50
2022/06/25 00:58:44;;;;;;;5.63;4.20;;;21.20;99.90;;;;;;5055731;28;20652;-47
2022/06/25 01:01:17;;;;;;;5.37;4.93;;;21.10;99.90;;;;;;5049916;28;20419;-49
2022/06/25 01:03:44;;;;;;;5.07;4.63;;;21.10;99.90;;;;;;5056750;28;20421;-47
2022/06/25 01:06:11;;;;;;;6.90;5.03;;;21.10;99.90;;;;;;5049470;28;20465;-47
2022/06/25 01:08:39;;;;;;;5.53;5.10;;;21.00;99.90;;;;;;5058094;28;20488;-47
2022/06/25 01:11:07;;;;;;;4.37;4.00;;;21.10;99.90;;;;;;5049817;28;20460;-47
2022/06/25 01:13:35;;;;;;;3.77;3.50;;;21.10;99.90;;;;;;5051383;28;20461;-51
2022/06/25 01:16:03;;;;;;;8.67;5.47;;;21.10;99.90;;;;;;5053761;28;20431;-48
2022/06/25 01:18:30;;;;;;;4.13;3.83;;;21.00;99.90;;;;;;5050346;28;20406;-48
2022/06/25 01:20:59;;;;;;;5.33;4.60;;;21.00;99.90;;;;;;5054881;28;20436;-52
2022/06/25 01:23:27;;;;;;;5.40;4.57;;;21.00;99.90;;;;;;5050201;28;20423;-50
2022/06/25 01:25:54;;;;;;;8.30;4.67;;;21.00;99.90;;;;;;5039186;28;20788;-48
2022/06/25 01:28:22;;;;;;;6.00;4.43;;;21.00;99.90;;;;;;5050518;28;20687;-48
2022/06/25 01:30:49;;;;;;;5.30;4.37;;;20.90;99.90;;;;;;5045075;28;20795;-49
2022/06/25 01:33:16;;;;;;;3.87;3.67;;;20.90;99.90;;;;;;5040910;28;20486;-49
2022/06/25 01:35:43;;;;;;;3.90;3.60;;;20.80;99.90;;;;;;5044618;28;20490;-47
2022/06/25 01:38:10;;;;;;;4.90;4.40;;;20.80;99.90;;;;;;5048946;28;20416;-52
2022/06/25 01:40:38;;;;;;;5.20;4.10;;;20.70;99.90;;;;;;5041313;28;20667;-52
2022/06/25 01:43:05;;;;;;;5.07;4.03;;;20.80;99.90;;;;;;5046897;28;20420;-50
2022/06/25 01:45:37;;;;;;;5.00;3.90;;;20.80;99.90;;;;;;5045085;28;20436;-51
2022/06/25 01:48:07;;;;;;;5.00;4.60;;;20.80;99.90;;;;;;5046269;28;20424;-46
2022/06/25 01:50:35;;;;;;;4.60;3.90;;;20.80;99.90;;;;;;5049932;28;20449;-49
2022/06/25 01:53:04;;;;;;;4.60;4.20;;;20.80;99.90;;;;;;5048589;28;20448;-52
2022/06/25 01:55:32;;;;;;;5.30;4.30;;;20.80;99.90;;;;;;5050715;28;20457;-52
2022/06/25 01:58:00;;;;;;;4.60;4.13;;;20.90;99.90;;;;;;5048229;28;20739;-50
2022/06/25 02:00:30;;;;;;;3.73;3.40;;;20.90;99.90;;;;;;5054195;28;20438;-48
2022/06/25 02:02:59;;;;;;;3.60;3.30;;;20.90;99.90;;;;;;5039932;28;20470;-48
2022/06/25 02:08:17;;;;;;;4.10;3.80;;;21.00;99.90;;;;;;5047996;28;20748;-49
2022/06/25 02:10:46;;;;;;;4.27;3.87;;;21.00;99.90;;;;;;5051287;28;20413;-50
2022/06/25 02:13:15;;;;;;;7.50;3.83;;;20.90;99.90;;;;;;5049775;28;20606;-51
2022/06/25 02:15:42;;;;;;;4.50;4.00;;;21.00;99.90;;;;;;5051282;28;20683;-49
2022/06/25 02:18:13;;;;;;;7.20;5.03;;;20.90;99.90;;;;;;5051375;28;20414;-45
2022/06/25 02:20:41;;;;;;;4.03;3.73;;;20.90;99.90;;;;;;5051148;28;20425;-49
2022/06/25 02:23:12;;;;;;;4.07;3.67;;;20.90;99.90;;;;;;5052742;28;20652;-48
2022/06/25 02:25:40;;;;;;;3.80;3.50;;;21.00;99.90;;;;;;5051332;28;20449;-49
2022/06/25 02:28:14;;;;;;;6.30;3.80;;;20.90;99.90;;;;;;5050274;28;20413;-47
2022/06/25 02:30:44;;;;;;;5.03;4.17;;;20.90;99.90;;;;;;5051068;28;20429;-47
2022/06/25 02:33:13;;;;;;;4.20;3.80;;;20.90;99.90;;;;;;5050561;28;20452;-45
2022/06/25 02:35:42;;;;;;;4.47;4.03;;;20.90;99.90;;;;;;5047229;28;20431;-46
2022/06/25 02:38:12;;;;;;;6.47;4.03;;;20.80;99.90;;;;;;5051031;28;20734;-48
2022/06/25 02:40:39;;;;;;;4.83;4.30;;;20.90;99.90;;;;;;5049026;28;20608;-50
2022/06/25 02:43:07;;;;;;;4.20;3.87;;;20.90;99.90;;;;;;5051008;28;20413;-50
2022/06/25 02:45:34;;;;;;;4.57;4.20;;;20.90;99.90;;;;;;5049983;28;20462;-48
2022/06/25 02:48:02;;;;;;;5.57;5.00;;;20.90;99.90;;;;;;5050859;28;20412;-47
2022/06/25 02:50:29;;;;;;;4.67;3.90;;;20.90;99.90;;;;;;5050374;28;20441;-50
2022/06/25 02:52:57;;;;;;;5.80;4.30;;;20.80;99.90;;;;;;5050320;28;20505;-46
2022/06/25 02:58:54;;;;;;;4.27;3.97;;;20.80;99.90;;;;;;5050228;28;20463;-49
2022/06/25 03:00:57;;;;;;;8.93;5.03;;;20.80;99.90;;;;;;5044968;28;20461;-52
2022/06/25 03:03:24;;;;;;;3.67;3.37;;;20.70;99.90;;;;;;5053888;28;20442;-50
2022/06/25 03:05:51;;;;;;;5.37;4.40;;;20.70;99.90;;;;;;5046812;28;20833;-49
2022/06/25 03:08:19;;;;;;;5.70;4.07;;;20.70;99.90;;;;;;5054511;28;20429;-50
2022/06/25 03:10:46;;;;;;;4.57;4.17;;;20.70;99.90;;;;;;5042725;28;20521;-49
2022/06/25 03:13:13;;;;;;;5.30;4.20;;;20.70;99.90;;;;;;5046911;28;20450;-52
2022/06/25 03:15:41;;;;;;;4.43;3.90;;;20.80;99.90;;;;;;5052940;28;20512;-48
2022/06/25 03:18:08;;;;;;;4.27;3.87;;;20.80;99.90;;;;;;5047303;28;20479;-51
2022/06/25 03:20:35;;;;;;;4.70;4.30;;;20.80;99.90;;;;;;5054141;28;20437;-45
2022/06/25 03:23:03;;;;;;;5.10;4.57;;;20.80;99.90;;;;;;5046971;28;20450;-48
2022/06/25 03:25:30;;;;;;;4.40;4.00;;;20.90;99.90;;;;;;5054638;28;20461;-50
2022/06/25 03:27:57;;;;;;;5.80;4.37;;;20.90;99.90;;;;;;5046531;28;20780;-47
2022/06/25 03:30:25;;;;;;;4.70;4.10;;;21.00;99.90;;;;;;5047398;28;20557;-53
2022/06/25 03:32:52;;;;;;;4.13;3.83;;;21.00;99.90;;;;;;5051995;28;20459;-52
2022/06/25 03:35:20;;;;;;;4.50;3.57;;;21.00;99.90;;;;;;5043805;28;20498;-47
2022/06/25 03:37:47;;;;;;;6.37;4.20;;;21.20;99.90;;;;;;5031486;28;20442;-48
2022/06/25 03:40:18;;;;;;;5.00;4.50;;;21.30;99.90;;;;;;5040292;28;20611;-50
2022/06/25 03:42:49;;;;;;;5.07;4.07;;;21.40;99.90;;;;;;5037641;28;20438;-50
2022/06/25 03:45:16;;;;;;;6.00;5.27;;;21.40;99.90;;;;;;5048931;28;20825;-50
2022/06/25 03:47:49;;;;;;;6.67;4.73;;;21.30;99.90;;;;;;5049977;28;20493;-49
2022/06/25 03:50:18;;;;;;;6.00;5.40;;;21.30;99.90;;;;;;5050489;28;20481;-49
2022/06/25 03:52:46;;;;;;;5.80;3.70;;;21.30;99.90;;;;;;5050288;28;20448;-50
2022/06/25 03:55:15;;;;;;;5.63;4.20;;;21.20;99.90;;;;;;5050482;28;20686;-47
2022/06/25 03:57:52;;;;;;;5.73;4.37;;;21.30;99.90;;;;;;5041905;28;20639;-53
2022/06/25 04:00:19;;;;;;;3.90;3.60;;;21.20;99.90;;;;;;5050203;28;20488;-51
2022/06/25 04:02:46;;;;;;;4.70;4.40;;;21.10;99.90;;;;;;5047103;28;20434;-47
2022/06/25 04:05:13;;;;;;;4.63;3.50;;;21.10;99.90;;;;;;5049678;28;20440;-47
2022/06/25 04:07:41;;;;;;;4.97;4.57;;;21.20;99.90;;;;;;5048977;28;20450;-49
2022/06/25 04:10:11;;;;;;;7.30;6.60;;;21.20;99.90;;;;;;5050052;28;20447;-47
2022/06/25 04:12:38;;;;;;;4.67;4.30;;;21.20;99.90;;;;;;5047578;28;20452;-45
2022/06/25 04:15:05;;;;;;;5.30;4.90;;;21.30;99.90;;;;;;5050330;28;20461;-48
2022/06/25 04:17:33;;;;;;;8.90;4.40;;;21.30;99.90;;;;;;5047684;28;20423;-50
2022/06/25 04:20:02;;;;;;;4.00;3.70;;;21.20;99.90;;;;;;5050180;28;20417;-50
2022/06/25 04:22:29;;;;;;;6.97;4.43;;;21.30;99.90;;;;;;5048651;28;20608;-50
2022/06/25 04:24:56;;;;;;;4.63;4.20;;;21.40;99.90;;;;;;5051304;28;20615;-47
2022/06/25 04:30:09;;;;;;;5.20;4.70;;;21.30;99.90;;;;;;5045138;28;20423;-48
2022/06/25 04:32:37;;;;;;;5.83;5.27;;;21.40;99.90;;;;;;5055943;28;20486;-47
2022/06/25 04:35:05;;;;;;;4.73;4.20;;;21.40;99.90;;;;;;5049050;28;20441;-48
2022/06/25 04:37:32;;;;;;;4.40;4.10;;;21.30;99.90;;;;;;5044990;28;20406;-51
2022/06/25 04:40:00;;;;;;;5.00;4.60;;;21.00;99.90;;;;;;5045447;28;20459;-49
2022/06/25 04:42:27;;;;;;;6.63;5.50;;;20.90;99.90;;;;;;5051361;28;20447;-51
2022/06/25 04:44:54;;;;;;;8.20;5.27;;;21.00;99.90;;;;;;5053167;28;20512;-52
2022/06/25 04:47:22;;;;;;;5.43;4.60;;;20.90;99.90;;;;;;5051921;28;20453;-50
2022/06/25 04:49:50;;;;;;;18.90;6.13;;;21.00;99.90;;;;;;5052635;28;20416;-48
2022/06/25 04:52:18;;;;;;;7.53;5.40;;;21.40;99.90;;;;;;5053339;28;20632;-51
2022/06/25 04:54:45;;;;;;;6.27;5.67;;;21.50;99.90;;;;;;5052721;28;20502;-50
2022/06/25 04:57:14;;;;;;;6.23;5.53;;;21.90;99.90;;;;;;5052056;28;20409;-49
2022/06/25 04:59:41;;;;;;;5.03;4.63;;;22.10;99.90;;;;;;5051789;28;20461;-49
2022/06/25 05:02:08;;;;;;;4.90;4.30;;;22.40;99.90;;;;;;5052867;28;20411;-51
2022/06/25 05:04:35;;;;;;;6.07;5.20;;;23.00;99.90;;;;;;5051532;28;20492;-50
2022/06/25 05:07:03;;;;;;;4.73;4.27;;;23.30;99.90;;;;;;5053051;28;20415;-48
2022/06/25 05:09:30;;;;;;;7.63;6.23;;;23.60;99.90;;;;;;5052092;28;20412;-51
2022/06/25 05:11:58;;;;;;;6.17;5.57;;;24.00;99.90;;;;;;5052848;28;20756;-53
2022/06/25 05:14:25;;;;;;;5.80;5.20;;;24.10;99.90;;;;;;5050121;28;20841;-51
2022/06/25 05:16:53;;;;;;;5.13;4.73;;;24.10;99.90;;;;;;5052401;28;20407;-46
2022/06/25 05:19:21;;;;;;;9.40;5.30;;;24.20;99.90;;;;;;5051011;28;20430;-46
2022/06/25 05:21:48;;;;;;;6.90;5.27;;;24.20;99.90;;;;;;5052339;28;20491;-50
2022/06/25 05:24:16;;;;;;;5.30;4.87;;;24.10;99.90;;;;;;5052447;28;20825;-49
2022/06/25 05:26:43;;;;;;;5.97;5.47;;;24.10;99.90;;;;;;5051078;28;20753;-51
2022/06/25 05:29:10;;;;;;;4.63;4.30;;;23.70;99.90;;;;;;5052411;28;20444;-47
2022/06/25 05:31:37;;;;;;;5.60;5.13;;;23.10;99.90;;;;;;5049974;28;20606;-49
2022/06/25 05:34:05;;;;;;;7.47;6.43;;;22.70;99.90;;;;;;5052135;28;20450;-50
2022/06/25 05:36:32;;;;;;;8.23;5.57;;;22.30;99.90;;;;;;5049239;28;20495;-50
2022/06/25 05:39:00;;;;;;;5.83;5.33;;;21.80;99.90;;;;;;5048882;28;20734;-48
2022/06/25 05:41:28;;;;;;;4.40;4.03;;;21.50;99.90;;;;;;5054068;28;20610;-53
2022/06/25 05:43:55;;;;;;;5.20;4.80;;;21.30;99.90;;;;;;5048345;28;20414;-46
2022/06/25 05:46:22;;;;;;;8.53;5.07;;;21.30;99.90;;;;;;5055678;28;20453;-47
2022/06/25 05:48:50;;;;;;;10.73;9.67;;;21.50;99.90;;;;;;5048781;28;20495;-51
2022/06/25 05:51:17;;;;;;;10.47;5.10;;;21.70;99.90;;;;;;5056660;28;20426;-48
2022/06/25 05:53:44;;;;;;;6.13;5.63;;;22.20;99.90;;;;;;5049230;28;20457;-51
2022/06/25 05:56:11;;;;;;;5.77;5.37;;;22.40;99.90;;;;;;5049250;28;20424;-53
2022/06/25 05:58:39;;;;;;;7.57;5.43;;;22.40;99.90;;;;;;5054504;28;20414;-51
2022/06/25 06:01:06;;;;;;;5.73;5.30;;;22.30;99.90;;;;;;5048511;28;20524;-51
2022/06/25 06:03:36;;;;;;;5.73;5.17;;;22.40;99.90;;;;;;5055409;28;20440;-48
2022/06/25 06:06:04;;;;;;;5.13;4.73;;;22.40;99.90;;;;;;5048918;28;20443;-49
2022/06/25 06:08:31;;;;;;;5.33;4.83;;;22.20;99.90;;;;;;5056895;28;20421;-53
2022/06/25 06:10:58;;;;;;;5.23;4.83;;;22.30;99.90;;;;;;5048239;28;20440;-47
2022/06/25 06:13:25;;;;;;;5.90;5.40;;;22.40;99.90;;;;;;5048694;28;20455;-46
2022/06/25 06:15:53;;;;;;;6.73;6.13;;;22.80;99.90;;;;;;5052162;28;20442;-52
2022/06/25 06:18:20;;;;;;;7.60;6.90;;;23.00;99.90;;;;;;5032796;28;20974;-51
2022/06/25 06:20:47;;;;;;;5.77;5.27;;;23.20;99.90;;;;;;5030211;28;20416;-48
2022/06/25 06:23:14;;;;;;;7.07;5.47;;;23.60;99.90;;;;;;5033306;28;20429;-52
2022/06/25 06:25:42;;;;;;;6.10;5.50;;;23.70;99.90;;;;;;5051596;28;20434;-46
2022/06/25 06:28:09;;;;;;;7.00;4.97;;;23.70;99.90;;;;;;5049171;28;20441;-46
2022/06/25 06:30:36;;;;;;;4.80;4.40;;;23.60;99.90;;;;;;5043250;28;20445;-52
2022/06/25 06:33:04;;;;;;;8.93;5.33;;;23.30;99.90;;;;;;5047725;28;20452;-50
2022/06/25 06:35:31;;;;;;;6.00;4.97;;;23.10;99.90;;;;;;5048373;28;20916;-48
2022/06/25 06:37:59;;;;;;;6.10;5.50;;;23.70;99.90;;;;;;5051135;28;20453;-48
2022/06/25 06:40:26;;;;;;;7.70;4.90;;;24.20;99.90;;;;;;5048647;28;20507;-46
2022/06/25 06:42:53;;;;;;;4.80;4.30;;;24.60;99.90;;;;;;5049917;28;20626;-47
2022/06/25 06:45:20;;;;;;;5.87;5.33;;;24.80;99.90;;;;;;5049677;28;20456;-48
2022/06/25 06:47:47;;;;;;;4.07;3.70;;;25.30;99.90;;;;;;5036905;28;20457;-48
2022/06/25 06:50:14;;;;;;;4.13;3.73;;;25.80;99.90;;;;;;5045466;28;20436;-51
2022/06/25 06:52:42;;;;;;;3.53;3.23;;;26.90;99.90;;;;;;5049983;28;20775;-46
2022/06/25 06:55:09;;;;;;;4.93;4.53;;;27.90;99.90;;;;;;5045414;28;20463;-51
2022/06/25 06:57:37;;;;;;;4.10;3.80;;;29.80;99.90;;;;;;5039494;28;20415;-51
2022/06/25 07:00:12;;;;;;;4.00;3.10;;;30.30;99.90;;;;;;5048101;28;20444;-51
2022/06/25 07:02:39;;;;;;;4.80;3.40;;;30.00;99.90;;;;;;5022595;28;20438;-47
2022/06/25 07:05:07;;;;;;;4.13;3.43;;;30.30;99.90;;;;;;5019030;28;20490;-48
2022/06/25 07:07:34;;;;;;;5.30;3.23;;;30.50;99.90;;;;;;5019210;28;20501;-52
2022/06/25 07:10:04;;;;;;;3.43;3.23;;;32.40;99.90;;;;;;5018807;28;20446;-52
2022/06/25 07:12:31;;;;;;;3.33;3.03;;;34.90;99.90;;;;;;5019102;28;20442;-48
2022/06/25 07:14:58;;;;;;;3.37;3.07;;;36.00;97.90;;;;;;5018007;28;20521;-49
2022/06/25 07:17:25;;;;;;;5.23;3.50;;;37.40;93.90;;;;;;5030802;28;20443;-51
2022/06/25 07:19:53;;;;;;;3.57;3.27;;;37.40;90.80;;;;;;5022106;28;20465;-49
2022/06/25 07:22:20;;;;;;;3.10;2.80;;;35.80;92.20;;;;;;5023303;28;20691;-50
2022/06/25 07:24:47;;;;;;;3.20;2.90;;;34.70;93.70;;;;;;5023650;28;20788;-49
2022/06/25 07:27:18;;;;;;;4.63;3.43;;;34.00;94.40;;;;;;5033896;28;20636;-50
2022/06/25 07:29:46;;;;;;;8.33;3.33;;;32.80;96.80;;;;;;5047336;28;20729;-50
2022/06/25 07:32:13;;;;;;;2.57;2.37;;;31.40;98.90;;;;;;5046426;28;20433;-55
2022/06/25 07:34:41;;;;;;;3.47;3.17;;;30.60;99.90;;;;;;5039599;28;20564;-50
2022/06/25 07:37:12;;;;;;;3.90;3.60;;;30.60;99.90;;;;;;5044352;28;20429;-51
2022/06/25 07:39:39;;;;;;;2.90;2.60;;;32.30;99.70;;;;;;5049592;28;20534;-51
2022/06/25 07:42:06;;;;;;;3.43;3.13;;;34.10;96.80;;;;;;5035232;28;20771;-54
2022/06/25 07:44:33;;;;;;;2.80;2.57;;;36.10;93.10;;;;;;5041227;28;20438;-50
2022/06/25 07:47:01;;;;;;;2.93;2.63;;;38.30;90.00;;;;;;5046475;28;20445;-54
2022/06/25 07:49:28;;;;;;;2.93;2.73;;;40.20;80.40;;;;;;5039648;28;20450;-54
2022/06/25 07:51:56;;;;;;;2.80;2.60;;;41.20;75.50;;;;;;5052773;28;20501;-48
2022/06/25 07:54:25;;;;;;;2.40;2.23;;;41.00;71.10;;;;;;5040117;28;20813;-47
2022/06/25 07:56:57;;;;;;;2.60;2.40;;;40.40;70.50;;;;;;5042306;28;20440;-50
2022/06/25 07:59:24;;;;;;;3.27;2.83;;;40.70;70.00;;;;;;5040535;28;20626;-48
2022/06/25 08:01:51;;;;;;;2.40;2.30;;;42.10;65.00;;;;;;5043518;28;20437;-51
2022/06/25 08:04:18;;;;;;;2.93;2.70;;;42.40;62.90;;;;;;5044209;28;20788;-53
2022/06/25 08:06:46;;;;;;;2.40;2.20;;;41.80;62.60;;;;;;5043470;28;20465;-52
2022/06/25 08:09:13;;;;;;;3.00;2.80;;;39.80;66.30;;;;;;5020876;28;20666;-53
2022/06/25 08:11:41;;;;;;;2.37;2.17;;;38.60;68.40;;;;;;5020505;28;21654;-52
2022/06/25 08:14:07;;;;;;;2.97;2.20;;;36.60;74.10;;;;;;5015252;28;20471;-51
2022/06/25 08:16:35;;;;;;;3.00;2.80;;;35.90;75.90;;;;;;5027665;28;20462;-53
2022/06/25 08:19:02;;;;;;;2.70;2.50;;;38.00;73.90;;;;;;5031038;28;20497;-53
2022/06/25 08:21:29;;;;;;;2.90;2.70;;;40.00;69.00;;;;;;5033112;28;20442;-54
2022/06/25 08:23:57;;;;;;;5.57;2.73;;;41.20;65.40;;;;;;5038490;28;21002;-54
2022/06/25 08:26:24;;;;;;;2.30;2.10;;;40.20;65.00;;;;;;5037253;28;20454;-54
2022/06/25 08:28:51;;;;;;;2.77;2.57;;;39.20;68.10;;;;;;5038026;28;20443;-52
2022/06/25 08:31:18;;;;;;;4.03;2.53;;;39.10;66.90;;;;;;5027647;28;20480;-52
2022/06/25 08:33:45;;;;;;;3.13;2.30;;;37.20;69.70;;;;;;5042224;28;20473;-50
2022/06/25 08:36:12;;;;;;;2.10;1.90;;;37.60;70.00;;;;;;5032939;28;20530;-53
2022/06/25 08:38:40;;;;;;;2.87;2.57;;;38.20;69.50;;;;;;5045781;28;20979;-49
2022/06/25 08:41:08;;;;;;;2.97;2.60;;;37.70;67.60;;;;;;5050619;28;20440;-51
2022/06/25 08:43:36;;;;;;;2.97;2.50;;;37.40;69.10;;;;;;5030447;28;20434;-50
2022/06/25 08:46:06;;;;;;;2.33;2.20;;;38.10;67.00;;;;;;5040573;28;20472;-49
2022/06/25 08:48:37;;;;;;;4.37;2.73;;;39.30;65.10;;;;;;5040375;28;20652;-52
2022/06/25 08:51:04;;;;;;;3.57;2.60;;;41.60;61.00;;;;;;5044577;28;20450;-54
2022/06/25 08:53:33;;;;;;;3.00;2.80;;;42.70;59.00;;;;;;5047263;28;20826;-54
2022/06/25 08:56:06;;;;;;;3.17;2.97;;;42.40;57.50;;;;;;5042265;28;20462;-52
2022/06/25 08:58:35;;;;;;;2.50;2.30;;;43.00;56.90;;;;;;5024581;28;20481;-55
2022/06/25 09:01:02;;;;;;;3.23;2.97;;;44.70;54.60;;;;;;5021824;28;20441;-54
2022/06/25 09:03:30;;;;;;;3.07;2.83;;;43.90;53.80;;;;;;5024625;28;20474;-51
2022/06/25 09:06:17;;;;;;;2.60;2.50;;;43.20;54.00;;;;;;5046368;28;20459;-50
2022/06/25 09:09:15;;;;;;;2.53;2.43;;;39.20;57.50;;;;;;5049601;28;20436;-51
2022/06/25 09:11:57;;;;;;;4.00;2.47;;;37.70;60.50;;;;;;5047512;28;20459;-50
2022/06/25 09:14:29;;;;;;;2.93;2.73;;;38.60;59.10;;;;;;5047814;28;20490;-54
2022/06/25 09:17:14;;;;;;;3.57;2.70;;;39.30;58.60;;;;;;5044017;28;20432;-51
2022/06/25 09:19:47;;;;;;;3.07;2.87;;;39.50;58.30;;;;;;5043815;28;20479;-49
2022/06/25 09:22:20;;;;;;;4.03;3.73;;;40.10;58.00;;;;;;5052699;28;20510;-49
2022/06/25 09:24:55;;;;;;;4.63;2.80;;;40.30;57.10;;;;;;5037676;28;20755;-52
2022/06/25 09:27:37;;;;;;;3.77;2.57;;;40.30;56.40;;;;;;5053099;28;20429;-51
2022/06/25 09:30:15;;;;;;;3.03;2.80;;;39.50;57.70;;;;;;5043478;28;20627;-52
2022/06/25 09:32:51;;;;;;;5.20;3.97;;;37.30;62.30;;;;;;5055594;28;20514;-50
2022/06/25 09:35:32;;;;;;;3.13;2.93;;;37.20;63.20;;;;;;5041907;28;20480;-49
2022/06/25 09:38:05;;;;;;;5.23;2.97;;;36.10;65.90;;;;;;5042955;28;20440;-54
2022/06/25 09:40:34;;;;;;;3.77;3.57;;;35.00;69.00;;;;;;5044487;28;20499;-51
2022/06/25 09:43:19;;;;;;;3.17;2.97;;;33.30;73.10;;;;;;5053047;28;20603;-51
2022/06/25 09:45:48;;;;;;;4.03;3.73;;;32.00;78.10;;;;;;5048416;28;20456;-54
2022/06/25 09:48:24;;;;;;;5.40;3.23;;;31.60;80.90;;;;;;5052521;28;20440;-52
2022/06/25 09:51:12;;;;;;;5.10;4.27;;;31.80;81.40;;;;;;5047129;28;20505;-52
2022/06/25 09:53:56;;;;;;;3.23;2.93;;;32.10;81.90;;;;;;5054903;28;20478;-52
2022/06/25 09:56:32;;;;;;;4.60;4.20;;;32.40;81.20;;;;;;5046094;28;20456;-53
2022/06/25 09:59:01;;;;;;;3.40;3.10;;;32.50;79.40;;;;;;5052906;28;20448;-52
2022/06/25 10:01:32;;;;;;;3.53;3.33;;;32.60;80.30;;;;;;5049569;28;20430;-54
2022/06/25 10:04:02;;;;;;;4.00;3.70;;;32.80;78.80;;;;;;5053573;28;20437;-52
2022/06/25 10:06:35;;;;;;;3.70;3.33;;;32.50;79.10;;;;;;5043424;28;20482;-50
2022/06/25 10:09:04;;;;;;;4.10;3.70;;;32.00;81.40;;;;;;5045334;28;20440;-49
2022/06/25 10:11:34;;;;;;;4.50;4.10;;;32.00;82.50;;;;;;5046976;28;20430;-51
2022/06/25 10:14:02;;;;;;;4.67;4.17;;;31.80;81.60;;;;;;5044253;28;20532;-51
2022/06/25 10:16:29;;;;;;;3.50;3.20;;;31.40;82.10;;;;;;5049655;28;20503;-51
2022/06/25 10:18:57;;;;;;;5.43;4.17;;;30.90;84.30;;;;;;5040178;28;20448;-50
2022/06/25 10:21:25;;;;;;;4.80;4.37;;;31.00;83.60;;;;;;5041614;28;20444;-52
2022/06/25 10:24:01;;;;;;;5.10;4.57;;;30.70;85.70;;;;;;5043286;28;20488;-50
2022/06/25 10:26:29;;;;;;;3.93;3.50;;;30.60;87.20;;;;;;5031306;28;20622;-51
2022/06/25 10:28:56;;;;;;;4.00;3.80;;;30.50;88.00;;;;;;5031455;28;20677;-52
2022/06/25 10:31:24;;;;;;;4.73;4.37;;;30.60;88.70;;;;;;5031169;28;20432;-51
2022/06/25 10:34:02;;;;;;;3.97;3.67;;;30.50;87.60;;;;;;5042255;28;20442;-47
2022/06/25 10:36:58;;;;;;;4.30;4.00;;;30.40;89.10;;;;;;5055226;28;20466;-53
2022/06/25 10:39:25;;;;;;;5.43;3.90;;;30.90;89.20;;;;;;5039443;28;20463;-51
2022/06/25 10:45:06;;;;;;;3.70;3.40;;;31.20;87.90;;;;;;5031367;28;20459;-54
2022/06/25 10:47:54;;;;;;;3.57;3.30;;;31.40;89.00;;;;;;5047669;28;20467;-51
2022/06/25 10:50:21;;;;;;;4.63;4.23;;;31.50;87.70;;;;;;5040920;28;20580;-48
2022/06/25 10:53:08;;;;;;;3.57;3.30;;;31.50;89.00;;;;;;5037039;28;20501;-48
2022/06/25 10:55:37;;;;;;;4.90;4.50;;;31.50;88.40;;;;;;5027826;28;20485;-49
2022/06/25 10:58:13;;;;;;;3.63;3.30;;;31.50;89.10;;;;;;5037395;28;20780;-50
2022/06/25 11:00:51;;;;;;;3.70;3.50;;;31.70;89.20;;;;;;5033217;28;20436;-49
2022/06/25 11:03:28;;;;;;;4.10;3.73;;;31.50;87.80;;;;;;5043224;28;20437;-48
2022/06/25 11:06:18;;;;;;;4.43;3.97;;;31.20;88.90;;;;;;5030794;28;20489;-53
2022/06/25 11:08:46;;;;;;;3.83;3.53;;;31.50;88.10;;;;;;5028944;28;20443;-50
2022/06/25 11:11:23;;;;;;;5.77;5.27;;;31.60;88.00;;;;;;5020472;28;20452;-52
2022/06/25 11:13:51;;;;;;;4.20;3.80;;;31.50;88.90;;;;;;5020812;28;20426;-53
2022/06/25 11:16:21;;;;;;;4.53;3.70;;;31.70;87.20;;;;;;5025473;28;20480;-50
2022/06/25 11:18:54;;;;;;;5.27;4.10;;;32.00;87.10;;;;;;5021445;28;20642;-50
2022/06/25 11:21:35;;;;;;;4.00;3.70;;;32.00;85.50;;;;;;5017637;28;20814;-48
2022/06/25 11:24:26;;;;;;;4.17;3.77;;;31.70;86.30;;;;;;5019260;28;20756;-53
2022/06/25 11:29:51;;;;;;;5.33;3.97;;;31.20;89.10;;;;;;5047847;28;20449;-51
2022/06/25 11:32:23;;;;;;;4.80;3.93;;;31.40;88.10;;;;;;5042511;28;20440;-50
2022/06/25 11:35:00;;;;;;;4.07;3.77;;;31.60;87.00;;;;;;5042117;28;20500;-50
2022/06/25 11:37:29;;;;;;;8.43;4.20;;;31.80;87.00;;;;;;5045753;28;20659;-51
2022/06/25 11:39:58;;;;;;;3.87;3.63;;;32.00;86.20;;;;;;5047434;28;20437;-54
2022/06/25 11:42:25;;;;;;;3.80;3.50;;;32.00;84.40;;;;;;5038523;28;20430;-50
2022/06/25 11:44:55;;;;;;;3.77;3.47;;;31.90;85.20;;;;;;5028533;28;20464;-51
2022/06/25 11:47:29;;;;;;;4.30;4.00;;;31.60;86.90;;;;;;5028914;28;20433;-52
2022/06/25 11:49:59;;;;;;;4.83;4.33;;;31.20;87.20;;;;;;5030641;28;20476;-51
2022/06/25 11:52:26;;;;;;;4.63;4.20;;;30.70;88.80;;;;;;5037981;28;20766;-49
2022/06/25 11:54:54;;;;;;;4.10;3.80;;;30.70;90.40;;;;;;5043721;28;20490;-53
2022/06/25 11:57:25;;;;;;;3.77;3.57;;;30.70;90.10;;;;;;5040986;28;20777;-49
2022/06/25 11:59:54;;;;;;;3.93;3.63;;;30.80;89.20;;;;;;5045888;28;20479;-54
2022/06/25 12:02:21;;;;;;;6.40;4.23;;;31.00;89.30;;;;;;5042359;28;20450;-51
2022/06/25 12:04:57;;;;;;;4.10;3.67;;;31.20;88.70;;;;;;5048262;28;20812;-50
2022/06/25 12:07:30;;;;;;;4.33;3.83;;;30.80;88.30;;;;;;5043948;28;20818;-53
2022/06/25 12:10:08;;;;;;;4.20;3.90;;;31.00;88.50;;;;;;5044065;28;20467;-49
2022/06/25 12:12:38;;;;;;;4.13;3.70;;;31.30;87.70;;;;;;5045898;28;20469;-49
2022/06/25 12:15:07;;;;;;;4.30;4.00;;;31.50;86.50;;;;;;5040406;28;20546;-52
2022/06/25 12:17:38;;;;;;;4.33;4.03;;;31.30;87.00;;;;;;5048609;28;20741;-52
2022/06/25 12:20:11;;;;;;;4.77;4.47;;;30.70;87.90;;;;;;5042058;28;20714;-49
2022/06/25 12:22:49;;;;;;;3.40;3.20;;;30.50;88.40;;;;;;5037907;28;20613;-52
2022/06/25 12:25:33;;;;;;;3.57;3.20;;;31.30;87.10;;;;;;5046740;28;20448;-50
2022/06/25 12:28:00;;;;;;;4.80;4.20;;;31.90;85.40;;;;;;5037610;28;20457;-48
2022/06/25 12:30:31;;;;;;;4.43;4.13;;;32.20;83.50;;;;;;5038985;28;20473;-53
2022/06/25 12:33:13;;;;;;;4.50;4.20;;;32.30;83.30;;;;;;5049379;28;20679;-53
2022/06/25 12:35:42;;;;;;;4.30;4.00;;;32.10;84.30;;;;;;5048722;28;20484;-53
2022/06/25 12:38:10;;;;;;;4.00;3.70;;;32.00;85.00;;;;;;5040410;28;20442;-52
2022/06/25 12:40:51;;;;;;;5.30;4.00;;;31.70;85.60;;;;;;5035701;28;20447;-53
2022/06/25 12:43:19;;;;;;;3.93;3.63;;;31.20;86.00;;;;;;5044726;28;20466;-51
2022/06/25 12:45:54;;;;;;;7.23;4.83;;;30.90;87.60;;;;;;5039770;28;20464;-52
2022/06/25 12:48:31;;;;;;;5.50;4.20;;;31.10;87.20;;;;;;5053971;28;20589;-52
2022/06/25 12:51:11;;;;;;;4.80;4.40;;;31.10;87.60;;;;;;5045315;28;20679;-54
2022/06/25 12:53:41;;;;;;;3.80;3.50;;;31.20;87.20;;;;;;5055163;28;20761;-51
2022/06/25 12:56:27;;;;;;;3.50;3.30;;;31.00;87.40;;;;;;5040693;28;20852;-54
2022/06/25 12:58:56;;;;;;;3.23;3.03;;;30.90;87.30;;;;;;5051250;28;20437;-54
2022/06/25 13:01:29;;;;;;;3.93;3.63;;;30.60;87.30;;;;;;5041488;28;20756;-50
2022/06/25 13:03:56;;;;;;;4.17;3.87;;;30.40;88.10;;;;;;5043020;28;20462;-53
2022/06/25 13:06:24;;;;;;;3.80;3.20;;;30.20;87.50;;;;;;5046996;28;20466;-49
2022/06/25 13:08:51;;;;;;;8.83;5.13;;;30.20;88.10;;;;;;5050302;28;20438;-47
2022/06/25 13:11:23;;;;;;;7.27;3.80;;;30.50;87.50;;;;;;5048728;28;20442;-54
2022/06/25 13:13:51;;;;;;;3.70;3.40;;;30.70;89.90;;;;;;5037122;28;20439;-52
2022/06/25 13:16:19;;;;;;;6.63;4.37;;;31.00;90.90;;;;;;5040323;28;20488;-51